sensor_id;sensor_type;location;lat;lon;timestamp;pressure;altitude;pressure_sealevel;temperature;humidity
6514;BME280;3290;47.716;9.070;2023-01-15T00:00:41;96154.81;;;12.29;60.47
6514;BME280;3290;47.716;9.070;2023-01-15T00:03:06;96151.88;;;12.26;60.21
6514;BME280;3290;47.716;9.070;2023-01-15T00:05:35;96155.72;;;12.18;59.92
6514;BME280;3290;47.716;9.070;2023-01-15T00:08:00;96150.53;;;12.23;59.10
6514;BME280;3290;47.716;9.070;2023-01-15T00:10:26;96146.31;;;12.22;60.08
6514;BME280;3290;47.716;9.070;2023-01-15T00:12:52;96140.19;;;12.17;59.17
6514;BME280;3290;47.716;9.070;2023-01-15T00:15:17;96150.28;;;12.25;58.81
6514;BME280;3290;47.716;9.070;2023-01-15T00:17:43;96134.94;;;12.17;58.65
6514;BME280;3290;47.716;9.070;2023-01-15T00:20:09;96136.66;;;12.28;59.25
6514;BME280;3290;47.716;9.070;2023-01-15T00:22:34;96131.84;;;12.20;59.06
6514;BME280;3290;47.716;9.070;2023-01-15T00:25:00;96118.81;;;12.30;59.17
6514;BME280;3290;47.716;9.070;2023-01-15T00:27:43;96114.09;;;12.27;59.00
6514;BME280;3290;47.716;9.070;2023-01-15T00:30:12;96127.06;;;12.17;60.07
6514;BME280;3290;47.716;9.070;2023-01-15T00:32:39;96122.38;;;12.19;59.28
6514;BME280;3290;47.716;9.070;2023-01-15T00:35:05;96118.56;;;12.10;60.50
6514;BME280;3290;47.716;9.070;2023-01-15T00:37:31;96114.31;;;12.04;61.22
6514;BME280;3290;47.716;9.070;2023-01-15T00:39:56;96113.50;;;12.03;62.28
6514;BME280;3290;47.716;9.070;2023-01-15T00:42:22;96113.09;;;11.95;63.02
6514;BME280;3290;47.716;9.070;2023-01-15T00:44:47;96115.81;;;12.00;63.45
6514;BME280;3290;47.716;9.070;2023-01-15T00:47:13;96120.94;;;11.90;63.76
6514;BME280;3290;47.716;9.070;2023-01-15T00:49:42;96116.03;;;11.98;63.70
6514;BME280;3290;47.716;9.070;2023-01-15T00:52:08;96112.25;;;11.90;63.57
6514;BME280;3290;47.716;9.070;2023-01-15T00:54:34;96103.44;;;11.79;64.16
6514;BME280;3290;47.716;9.070;2023-01-15T00:56:59;96111.25;;;11.74;63.27
6514;BME280;3290;47.716;9.070;2023-01-15T00:59:25;96102.97;;;11.82;61.67
6514;BME280;3290;47.716;9.070;2023-01-15T01:01:50;96102.06;;;11.93;61.07
6514;BME280;3290;47.716;9.070;2023-01-15T01:04:16;96095.72;;;12.10;61.32
6514;BME280;3290;47.716;9.070;2023-01-15T01:06:41;96100.97;;;11.89;61.97
6514;BME280;3290;47.716;9.070;2023-01-15T01:09:17;96109.94;;;11.93;61.77
6514;BME280;3290;47.716;9.070;2023-01-15T01:11:42;96101.19;;;12.04;62.04
6514;BME280;3290;47.716;9.070;2023-01-15T01:14:10;96100.75;;;12.12;61.59
6514;BME280;3290;47.716;9.070;2023-01-15T01:16:37;96106.97;;;12.06;61.46
6514;BME280;3290;47.716;9.070;2023-01-15T01:19:08;96098.59;;;12.09;61.59
6514;BME280;3290;47.716;9.070;2023-01-15T01:21:36;96094.94;;;12.10;62.23
6514;BME280;3290;47.716;9.070;2023-01-15T01:24:02;96085.59;;;11.98;62.38
6514;BME280;3290;47.716;9.070;2023-01-15T01:26:29;96081.88;;;11.94;63.51
6514;BME280;3290;47.716;9.070;2023-01-15T01:28:55;96086.94;;;12.00;63.33
6514;BME280;3290;47.716;9.070;2023-01-15T01:31:21;96090.00;;;11.92;63.28
6514;BME280;3290;47.716;9.070;2023-01-15T01:33:51;96077.72;;;11.98;62.86
6514;BME280;3290;47.716;9.070;2023-01-15T01:36:18;96085.44;;;12.04;63.10
6514;BME280;3290;47.716;9.070;2023-01-15T01:38:46;96079.50;;;12.13;62.43
6514;BME280;3290;47.716;9.070;2023-01-15T01:41:14;96076.25;;;12.06;62.32
6514;BME280;3290;47.716;9.070;2023-01-15T01:43:55;96070.47;;;12.04;62.24
6514;BME280;3290;47.716;9.070;2023-01-15T01:46:21;96058.91;;;12.05;63.35
6514;BME280;3290;47.716;9.070;2023-01-15T01:48:48;96056.56;;;12.04;63.96
6514;BME280;3290;47.716;9.070;2023-01-15T01:51:14;96060.34;;;12.13;64.36
6514;BME280;3290;47.716;9.070;2023-01-15T01:53:40;96062.91;;;12.08;65.54
6514;BME280;3290;47.716;9.070;2023-01-15T01:56:09;96068.13;;;12.08;66.05
6514;BME280;3290;47.716;9.070;2023-01-15T01:58:35;96069.41;;;12.05;67.58
6514;BME280;3290;47.716;9.070;2023-01-15T02:01:02;96061.84;;;12.09;67.32
6514;BME280;3290;47.716;9.070;2023-01-15T02:03:34;96060.03;;;11.72;68.29
6514;BME280;3290;47.716;9.070;2023-01-15T02:06:02;96038.25;;;11.71;68.46
6514;BME280;3290;47.716;9.070;2023-01-15T02:08:30;96036.63;;;11.87;68.52
6514;BME280;3290;47.716;9.070;2023-01-15T02:10:57;96040.28;;;11.86;69.56
6514;BME280;3290;47.716;9.070;2023-01-15T02:13:37;96036.81;;;11.80;68.93
6514;BME280;3290;47.716;9.070;2023-01-15T02:16:23;96031.16;;;11.88;69.12
6514;BME280;3290;47.716;9.070;2023-01-15T02:21:50;96031.19;;;11.72;70.95
6514;BME280;3290;47.716;9.070;2023-01-15T02:27:02;96011.59;;;11.79;70.23
6514;BME280;3290;47.716;9.070;2023-01-15T02:29:35;95998.47;;;11.79;70.09
6514;BME280;3290;47.716;9.070;2023-01-15T02:32:06;95989.50;;;11.75;69.98
6514;BME280;3290;47.716;9.070;2023-01-15T02:34:35;96004.94;;;11.93;71.02
6514;BME280;3290;47.716;9.070;2023-01-15T02:37:25;96002.00;;;11.68;71.46
6514;BME280;3290;47.716;9.070;2023-01-15T02:39:55;95998.06;;;11.87;71.05
6514;BME280;3290;47.716;9.070;2023-01-15T02:42:33;96000.19;;;11.90;70.16
6514;BME280;3290;47.716;9.070;2023-01-15T02:45:01;95990.97;;;11.88;70.28
6514;BME280;3290;47.716;9.070;2023-01-15T02:47:32;95979.56;;;11.77;71.00
6514;BME280;3290;47.716;9.070;2023-01-15T02:50:02;95986.25;;;11.68;70.30
6514;BME280;3290;47.716;9.070;2023-01-15T02:52:36;95989.09;;;11.83;70.77
6514;BME280;3290;47.716;9.070;2023-01-15T02:55:09;95987.78;;;11.86;70.01
6514;BME280;3290;47.716;9.070;2023-01-15T02:57:37;95987.63;;;11.71;70.86
6514;BME280;3290;47.716;9.070;2023-01-15T03:00:06;95988.84;;;11.85;70.23
6514;BME280;3290;47.716;9.070;2023-01-15T03:02:39;95969.59;;;11.79;70.45
6514;BME280;3290;47.716;9.070;2023-01-15T03:05:28;95978.16;;;11.70;72.08
6514;BME280;3290;47.716;9.070;2023-01-15T03:08:04;95974.19;;;11.67;72.39
6514;BME280;3290;47.716;9.070;2023-01-15T03:11:01;95984.78;;;11.56;73.97
6514;BME280;3290;47.716;9.070;2023-01-15T03:13:45;95971.50;;;11.62;74.18
6514;BME280;3290;47.716;9.070;2023-01-15T03:19:34;95965.34;;;11.52;75.27
6514;BME280;3290;47.716;9.070;2023-01-15T03:22:27;95960.72;;;11.43;76.21
6514;BME280;3290;47.716;9.070;2023-01-15T03:25:06;95955.56;;;11.48;76.63
6514;BME280;3290;47.716;9.070;2023-01-15T03:27:33;95952.94;;;11.48;77.82
6514;BME280;3290;47.716;9.070;2023-01-15T03:30:19;95946.94;;;11.31;77.64
6514;BME280;3290;47.716;9.070;2023-01-15T03:32:46;95934.03;;;11.67;76.50
6514;BME280;3290;47.716;9.070;2023-01-15T03:38:04;95923.66;;;11.56;76.75
6514;BME280;3290;47.716;9.070;2023-01-15T03:40:31;95916.03;;;11.54;78.12
6514;BME280;3290;47.716;9.070;2023-01-15T03:43:00;95910.94;;;11.64;77.21
6514;BME280;3290;47.716;9.070;2023-01-15T03:45:50;95918.88;;;11.74;77.74
6514;BME280;3290;47.716;9.070;2023-01-15T03:48:24;95926.34;;;11.60;77.50
6514;BME280;3290;47.716;9.070;2023-01-15T03:51:19;95906.63;;;11.79;77.62
6514;BME280;3290;47.716;9.070;2023-01-15T03:53:53;95922.13;;;11.59;79.39
6514;BME280;3290;47.716;9.070;2023-01-15T03:59:16;95912.19;;;11.61;79.25
6514;BME280;3290;47.716;9.070;2023-01-15T04:01:44;95910.06;;;11.59;80.74
6514;BME280;3290;47.716;9.070;2023-01-15T04:04:12;95923.81;;;11.65;80.05
6514;BME280;3290;47.716;9.070;2023-01-15T04:06:39;95914.34;;;11.64;80.69
6514;BME280;3290;47.716;9.070;2023-01-15T04:09:07;95915.09;;;11.86;79.58
6514;BME280;3290;47.716;9.070;2023-01-15T04:11:34;95919.72;;;11.79;81.43
6514;BME280;3290;47.716;9.070;2023-01-15T04:14:00;95917.09;;;11.74;82.24
6514;BME280;3290;47.716;9.070;2023-01-15T04:16:28;95929.53;;;11.62;83.39
6514;BME280;3290;47.716;9.070;2023-01-15T04:18:54;95930.06;;;11.64;83.84
6514;BME280;3290;47.716;9.070;2023-01-15T04:21:20;95911.72;;;11.64;84.76
6514;BME280;3290;47.716;9.070;2023-01-15T04:23:46;95915.34;;;11.63;86.43
6514;BME280;3290;47.716;9.070;2023-01-15T04:26:12;95926.84;;;11.58;87.25
6514;BME280;3290;47.716;9.070;2023-01-15T04:28:37;95916.34;;;11.58;87.80
6514;BME280;3290;47.716;9.070;2023-01-15T04:31:03;95918.59;;;11.70;87.97
6514;BME280;3290;47.716;9.070;2023-01-15T04:33:29;95913.84;;;11.67;87.69
6514;BME280;3290;47.716;9.070;2023-01-15T04:35:54;95920.38;;;11.65;88.98
6514;BME280;3290;47.716;9.070;2023-01-15T04:38:22;95908.31;;;11.64;89.09
6514;BME280;3290;47.716;9.070;2023-01-15T04:40:48;95906.59;;;11.74;89.22
6514;BME280;3290;47.716;9.070;2023-01-15T04:43:31;95901.34;;;11.74;90.28
6514;BME280;3290;47.716;9.070;2023-01-15T04:46:22;95902.91;;;11.75;89.46
6514;BME280;3290;47.716;9.070;2023-01-15T04:48:47;95900.91;;;11.61;90.49
6514;BME280;3290;47.716;9.070;2023-01-15T04:51:13;95901.75;;;11.66;91.06
6514;BME280;3290;47.716;9.070;2023-01-15T04:53:38;95901.28;;;11.48;92.35
6514;BME280;3290;47.716;9.070;2023-01-15T04:56:04;95885.84;;;11.73;92.04
6514;BME280;3290;47.716;9.070;2023-01-15T04:58:30;95877.47;;;11.55;92.17
6514;BME280;3290;47.716;9.070;2023-01-15T05:00:56;95871.28;;;11.60;92.72
6514;BME280;3290;47.716;9.070;2023-01-15T05:03:24;95876.94;;;11.53;93.93
6514;BME280;3290;47.716;9.070;2023-01-15T05:05:50;95882.69;;;11.50;93.60
6514;BME280;3290;47.716;9.070;2023-01-15T05:08:15;95885.16;;;11.40;94.28
6514;BME280;3290;47.716;9.070;2023-01-15T05:10:40;95880.72;;;11.61;92.73
6514;BME280;3290;47.716;9.070;2023-01-15T05:13:06;95878.31;;;11.60;92.80
6514;BME280;3290;47.716;9.070;2023-01-15T05:15:31;95891.44;;;11.60;92.99
6514;BME280;3290;47.716;9.070;2023-01-15T05:17:57;95886.34;;;11.49;93.63
6514;BME280;3290;47.716;9.070;2023-01-15T05:20:22;95882.78;;;11.59;94.04
6514;BME280;3290;47.716;9.070;2023-01-15T05:22:47;95884.88;;;11.58;95.15
6514;BME280;3290;47.716;9.070;2023-01-15T05:25:13;95880.84;;;11.50;94.32
6514;BME280;3290;47.716;9.070;2023-01-15T05:27:38;95892.25;;;11.60;94.81
6514;BME280;3290;47.716;9.070;2023-01-15T05:30:05;95883.09;;;11.63;94.09
6514;BME280;3290;47.716;9.070;2023-01-15T05:32:30;95875.97;;;11.59;94.16
6514;BME280;3290;47.716;9.070;2023-01-15T05:34:56;95869.34;;;11.77;93.02
6514;BME280;3290;47.716;9.070;2023-01-15T05:37:21;95859.00;;;11.66;93.01
6514;BME280;3290;47.716;9.070;2023-01-15T05:39:46;95870.81;;;11.68;93.37
6514;BME280;3290;47.716;9.070;2023-01-15T05:42:12;95869.84;;;11.74;92.21
6514;BME280;3290;47.716;9.070;2023-01-15T05:44:37;95875.75;;;11.65;92.44
6514;BME280;3290;47.716;9.070;2023-01-15T05:47:03;95873.97;;;11.70;92.26
6514;BME280;3290;47.716;9.070;2023-01-15T05:49:30;95871.47;;;11.80;91.54
6514;BME280;3290;47.716;9.070;2023-01-15T05:51:57;95880.44;;;11.84;91.21
6514;BME280;3290;47.716;9.070;2023-01-15T05:54:29;95884.06;;;11.78;90.89
6514;BME280;3290;47.716;9.070;2023-01-15T05:56:55;95880.66;;;11.78;90.83
6514;BME280;3290;47.716;9.070;2023-01-15T05:59:23;95879.75;;;11.67;89.93
6514;BME280;3290;47.716;9.070;2023-01-15T06:01:49;95887.53;;;11.84;89.00
6514;BME280;3290;47.716;9.070;2023-01-15T06:04:15;95869.81;;;11.96;88.40
6514;BME280;3290;47.716;9.070;2023-01-15T06:06:46;95876.88;;;11.95;89.09
6514;BME280;3290;47.716;9.070;2023-01-15T06:09:12;95880.25;;;11.91;90.26
6514;BME280;3290;47.716;9.070;2023-01-15T06:11:38;95871.34;;;11.92;90.22
6514;BME280;3290;47.716;9.070;2023-01-15T06:14:04;95867.47;;;11.99;90.11
6514;BME280;3290;47.716;9.070;2023-01-15T06:16:30;95865.97;;;12.08;89.97
6514;BME280;3290;47.716;9.070;2023-01-15T06:19:02;95867.75;;;11.76;91.89
6514;BME280;3290;47.716;9.070;2023-01-15T06:21:29;95866.69;;;11.72;91.37
6514;BME280;3290;47.716;9.070;2023-01-15T06:23:55;95871.59;;;11.90;90.98
6514;BME280;3290;47.716;9.070;2023-01-15T06:26:21;95879.13;;;11.60;92.33
6514;BME280;3290;47.716;9.070;2023-01-15T06:28:47;95871.88;;;11.67;93.12
6514;BME280;3290;47.716;9.070;2023-01-15T06:31:14;95864.59;;;11.74;92.04
6514;BME280;3290;47.716;9.070;2023-01-15T06:33:40;95876.94;;;11.53;94.18
6514;BME280;3290;47.716;9.070;2023-01-15T06:36:11;95875.13;;;11.79;93.29
6514;BME280;3290;47.716;9.070;2023-01-15T06:38:38;95873.59;;;11.57;93.28
6514;BME280;3290;47.716;9.070;2023-01-15T06:41:05;95874.97;;;11.64;93.01
6514;BME280;3290;47.716;9.070;2023-01-15T06:43:54;95867.16;;;11.69;92.79
6514;BME280;3290;47.716;9.070;2023-01-15T06:46:42;95862.28;;;11.57;92.80
6514;BME280;3290;47.716;9.070;2023-01-15T06:49:27;95850.75;;;11.58;93.66
6514;BME280;3290;47.716;9.070;2023-01-15T06:51:52;95857.31;;;11.55;93.96
6514;BME280;3290;47.716;9.070;2023-01-15T06:54:18;95855.72;;;11.80;92.96
6514;BME280;3290;47.716;9.070;2023-01-15T06:56:43;95854.09;;;11.74;92.15
6514;BME280;3290;47.716;9.070;2023-01-15T06:59:09;95856.59;;;12.17;96.65
6514;BME280;3290;47.716;9.070;2023-01-15T07:01:35;95854.78;;;11.91;91.54
6514;BME280;3290;47.716;9.070;2023-01-15T07:04:00;95853.59;;;11.77;92.20
6514;BME280;3290;47.716;9.070;2023-01-15T07:06:25;95840.63;;;11.66;93.79
6514;BME280;3290;47.716;9.070;2023-01-15T07:08:52;95829.66;;;11.69;94.34
6514;BME280;3290;47.716;9.070;2023-01-15T07:11:17;95834.31;;;11.88;92.85
6514;BME280;3290;47.716;9.070;2023-01-15T07:13:42;95820.75;;;12.01;91.91
6514;BME280;3290;47.716;9.070;2023-01-15T07:16:08;95816.84;;;11.77;92.94
6514;BME280;3290;47.716;9.070;2023-01-15T07:18:53;95818.03;;;11.65;92.92
6514;BME280;3290;47.716;9.070;2023-01-15T07:21:18;95806.13;;;11.79;92.21
6514;BME280;3290;47.716;9.070;2023-01-15T07:23:44;95797.41;;;11.73;93.02
6514;BME280;3290;47.716;9.070;2023-01-15T07:26:09;95802.59;;;11.68;93.63
6514;BME280;3290;47.716;9.070;2023-01-15T07:28:34;95800.38;;;11.82;92.88
6514;BME280;3290;47.716;9.070;2023-01-15T07:31:00;95799.31;;;11.30;95.44
6514;BME280;3290;47.716;9.070;2023-01-15T07:33:25;95792.66;;;11.70;93.36
6514;BME280;3290;47.716;9.070;2023-01-15T07:35:51;95787.97;;;11.46;95.40
6514;BME280;3290;47.716;9.070;2023-01-15T07:38:16;95781.78;;;11.36;95.50
6514;BME280;3290;47.716;9.070;2023-01-15T07:40:41;95795.78;;;11.20;97.13
6514;BME280;3290;47.716;9.070;2023-01-15T07:43:08;95784.59;;;11.29;97.27
6514;BME280;3290;47.716;9.070;2023-01-15T07:45:52;95781.44;;;11.49;96.50
6514;BME280;3290;47.716;9.070;2023-01-15T07:48:36;95778.25;;;11.73;95.52
6514;BME280;3290;47.716;9.070;2023-01-15T07:51:20;95784.78;;;11.70;95.23
6514;BME280;3290;47.716;9.070;2023-01-15T07:53:45;95773.34;;;11.34;96.07
6514;BME280;3290;47.716;9.070;2023-01-15T07:56:11;95791.03;;;11.64;95.60
6514;BME280;3290;47.716;9.070;2023-01-15T07:58:36;95786.84;;;11.68;95.75
6514;BME280;3290;47.716;9.070;2023-01-15T08:01:02;95794.66;;;11.59;96.55
6514;BME280;3290;47.716;9.070;2023-01-15T08:03:27;95790.91;;;11.55;96.49
6514;BME280;3290;47.716;9.070;2023-01-15T08:05:53;95805.88;;;11.33;96.37
6514;BME280;3290;47.716;9.070;2023-01-15T08:08:18;95807.78;;;11.63;93.42
6514;BME280;3290;47.716;9.070;2023-01-15T08:10:44;95804.91;;;11.91;90.76
6514;BME280;3290;47.716;9.070;2023-01-15T08:13:28;95798.69;;;11.97;89.14
6514;BME280;3290;47.716;9.070;2023-01-15T08:16:12;95812.06;;;12.27;88.34
6514;BME280;3290;47.716;9.070;2023-01-15T08:18:38;95824.09;;;12.23;87.88
6514;BME280;3290;47.716;9.070;2023-01-15T08:21:04;95822.56;;;12.27;87.96
6514;BME280;3290;47.716;9.070;2023-01-15T08:23:29;95819.16;;;12.31;87.84
6514;BME280;3290;47.716;9.070;2023-01-15T08:25:58;95818.03;;;12.53;86.77
6514;BME280;3290;47.716;9.070;2023-01-15T08:28:24;95847.53;;;12.29;87.39
6514;BME280;3290;47.716;9.070;2023-01-15T08:30:49;95825.50;;;12.35;86.56
6514;BME280;3290;47.716;9.070;2023-01-15T08:33:14;95825.28;;;12.41;87.29
6514;BME280;3290;47.716;9.070;2023-01-15T08:35:40;95842.13;;;12.45;86.99
6514;BME280;3290;47.716;9.070;2023-01-15T08:38:06;95854.13;;;12.37;89.63
6514;BME280;3290;47.716;9.070;2023-01-15T08:40:32;95856.13;;;12.25;91.45
6514;BME280;3290;47.716;9.070;2023-01-15T08:42:57;95833.09;;;12.32;92.64
6514;BME280;3290;47.716;9.070;2023-01-15T08:45:23;95845.91;;;12.28;93.72
6514;BME280;3290;47.716;9.070;2023-01-15T08:47:48;95849.75;;;12.11;94.70
6514;BME280;3290;47.716;9.070;2023-01-15T08:50:14;95866.47;;;12.05;94.94
6514;BME280;3290;47.716;9.070;2023-01-15T08:52:39;95868.38;;;12.09;92.73
6514;BME280;3290;47.716;9.070;2023-01-15T08:55:06;95870.19;;;12.09;91.60
6514;BME280;3290;47.716;9.070;2023-01-15T08:57:31;95875.00;;;12.17;92.52
6514;BME280;3290;47.716;9.070;2023-01-15T08:59:57;95880.66;;;11.78;93.87
6514;BME280;3290;47.716;9.070;2023-01-15T09:02:22;95896.47;;;11.88;94.54
6514;BME280;3290;47.716;9.070;2023-01-15T09:04:47;95910.22;;;11.73;94.37
6514;BME280;3290;47.716;9.070;2023-01-15T09:07:13;95918.16;;;11.78;93.79
6514;BME280;3290;47.716;9.070;2023-01-15T09:09:38;95922.44;;;11.63;94.81
6514;BME280;3290;47.716;9.070;2023-01-15T09:12:03;95932.31;;;11.56;95.02
6514;BME280;3290;47.716;9.070;2023-01-15T09:14:29;95935.72;;;11.57;96.42
6514;BME280;3290;47.716;9.070;2023-01-15T09:16:54;95948.81;;;11.35;97.93
6514;BME280;3290;47.716;9.070;2023-01-15T09:19:20;95950.25;;;11.26;98.02
6514;BME280;3290;47.716;9.070;2023-01-15T09:21:45;95959.50;;;11.29;96.61
6514;BME280;3290;47.716;9.070;2023-01-15T09:24:11;95969.19;;;11.12;97.65
6514;BME280;3290;47.716;9.070;2023-01-15T09:26:37;95979.22;;;11.15;99.55
6514;BME280;3290;47.716;9.070;2023-01-15T09:29:04;95996.03;;;10.86;99.38
6514;BME280;3290;47.716;9.070;2023-01-15T09:31:31;96002.97;;;10.92;99.97
6514;BME280;3290;47.716;9.070;2023-01-15T09:33:57;95996.06;;;10.70;99.82
6514;BME280;3290;47.716;9.070;2023-01-15T09:36:26;96014.53;;;10.64;100.00
6514;BME280;3290;47.716;9.070;2023-01-15T09:38:53;96040.41;;;10.60;100.00
6514;BME280;3290;47.716;9.070;2023-01-15T09:41:19;96039.91;;;10.91;100.00
6514;BME280;3290;47.716;9.070;2023-01-15T09:47:13;96045.31;;;10.57;100.00
6514;BME280;3290;47.716;9.070;2023-01-15T09:55:18;96085.84;;;10.82;100.00
6514;BME280;3290;47.716;9.070;2023-01-15T09:57:45;96093.47;;;10.39;100.00
6514;BME280;3290;47.716;9.070;2023-01-15T10:00:25;96100.78;;;10.26;100.00
6514;BME280;3290;47.716;9.070;2023-01-15T10:05:31;96118.81;;;10.11;100.00
6514;BME280;3290;47.716;9.070;2023-01-15T10:10:34;96133.91;;;9.87;100.00
6514;BME280;3290;47.716;9.070;2023-01-15T10:13:22;96123.00;;;10.12;100.00
6514;BME280;3290;47.716;9.070;2023-01-15T10:15:53;96126.88;;;9.98;100.00
6514;BME280;3290;47.716;9.070;2023-01-15T10:18:22;96137.78;;;9.96;100.00
6514;BME280;3290;47.716;9.070;2023-01-15T10:24:08;96135.06;;;9.91;100.00
6514;BME280;3290;47.716;9.070;2023-01-15T10:26:38;96148.34;;;9.78;100.00
6514;BME280;3290;47.716;9.070;2023-01-15T10:35:06;96164.72;;;9.62;100.00
6514;BME280;3290;47.716;9.070;2023-01-15T10:45:24;96177.88;;;9.96;100.00
6514;BME280;3290;47.716;9.070;2023-01-15T10:48:13;96194.34;;;9.85;100.00
6514;BME280;3290;47.716;9.070;2023-01-15T10:50:40;96191.91;;;9.72;100.00
6514;BME280;3290;47.716;9.070;2023-01-15T10:55:54;96223.19;;;9.16;100.00
6514;BME280;3290;47.716;9.070;2023-01-15T11:01:18;96245.84;;;9.04;100.00
6514;BME280;3290;47.716;9.070;2023-01-15T11:03:47;96250.69;;;8.71;100.00
6514;BME280;3290;47.716;9.070;2023-01-15T11:06:15;96254.44;;;8.57;100.00
6514;BME280;3290;47.716;9.070;2023-01-15T11:08:45;96253.72;;;8.50;100.00
6514;BME280;3290;47.716;9.070;2023-01-15T11:11:18;96264.50;;;8.18;100.00
6514;BME280;3290;47.716;9.070;2023-01-15T11:13:52;96267.09;;;7.94;100.00
6514;BME280;3290;47.716;9.070;2023-01-15T11:16:37;96291.84;;;8.09;100.00
6514;BME280;3290;47.716;9.070;2023-01-15T11:19:30;96306.06;;;7.89;100.00
6514;BME280;3290;47.716;9.070;2023-01-15T11:22:15;96306.84;;;7.65;100.00
6514;BME280;3290;47.716;9.070;2023-01-15T11:24:53;96314.09;;;7.63;100.00
6514;BME280;3290;47.716;9.070;2023-01-15T11:27:22;96304.84;;;7.67;100.00
6514;BME280;3290;47.716;9.070;2023-01-15T11:29:59;96315.53;;;7.59;100.00
6514;BME280;3290;47.716;9.070;2023-01-15T11:32:37;96337.13;;;7.66;100.00
6514;BME280;3290;47.716;9.070;2023-01-15T11:35:15;96339.47;;;7.44;100.00
6514;BME280;3290;47.716;9.070;2023-01-15T11:37:42;96342.50;;;7.41;100.00
6514;BME280;3290;47.716;9.070;2023-01-15T11:40:17;96351.38;;;7.27;100.00
6514;BME280;3290;47.716;9.070;2023-01-15T11:42:47;96360.84;;;7.15;100.00
6514;BME280;3290;47.716;9.070;2023-01-15T11:45:31;96364.44;;;7.20;100.00
6514;BME280;3290;47.716;9.070;2023-01-15T11:48:18;96376.47;;;7.15;100.00
6514;BME280;3290;47.716;9.070;2023-01-15T11:51:13;96384.09;;;7.10;100.00
6514;BME280;3290;47.716;9.070;2023-01-15T11:53:47;96398.59;;;6.93;100.00
6514;BME280;3290;47.716;9.070;2023-01-15T11:56:20;96403.81;;;6.80;100.00
6514;BME280;3290;47.716;9.070;2023-01-15T11:58:58;96417.22;;;6.97;100.00
6514;BME280;3290;47.716;9.070;2023-01-15T12:01:33;96421.03;;;6.75;100.00
6514;BME280;3290;47.716;9.070;2023-01-15T12:04:04;96418.66;;;6.74;100.00
6514;BME280;3290;47.716;9.070;2023-01-15T12:06:33;96430.91;;;6.67;100.00
6514;BME280;3290;47.716;9.070;2023-01-15T12:12:18;96443.28;;;6.65;100.00
6514;BME280;3290;47.716;9.070;2023-01-15T12:26:30;96471.91;;;6.52;100.00
6514;BME280;3290;47.716;9.070;2023-01-15T12:29:23;96463.72;;;6.42;100.00
6514;BME280;3290;47.716;9.070;2023-01-15T12:31:55;96469.72;;;6.36;100.00
6514;BME280;3290;47.716;9.070;2023-01-15T12:34:29;96468.09;;;6.22;100.00
6514;BME280;3290;47.716;9.070;2023-01-15T12:37:05;96485.16;;;6.44;100.00
6514;BME280;3290;47.716;9.070;2023-01-15T12:39:41;96483.13;;;6.52;100.00
6514;BME280;3290;47.716;9.070;2023-01-15T12:42:12;96480.50;;;6.33;100.00
6514;BME280;3290;47.716;9.070;2023-01-15T12:45:02;96486.91;;;6.24;100.00
6514;BME280;3290;47.716;9.070;2023-01-15T12:47:39;96482.34;;;6.39;100.00
6514;BME280;3290;47.716;9.070;2023-01-15T13:01:21;96501.75;;;6.49;100.00
6514;BME280;3290;47.716;9.070;2023-01-15T13:04:02;96498.53;;;6.35;100.00
6514;BME280;3290;47.716;9.070;2023-01-15T13:06:31;96488.13;;;6.22;100.00
6514;BME280;3290;47.716;9.070;2023-01-15T13:09:18;96505.31;;;6.23;100.00
6514;BME280;3290;47.716;9.070;2023-01-15T13:11:47;96503.31;;;6.31;100.00
6514;BME280;3290;47.716;9.070;2023-01-15T13:14:17;96501.50;;;6.32;100.00
6514;BME280;3290;47.716;9.070;2023-01-15T13:17:00;96502.97;;;6.60;100.00
6514;BME280;3290;47.716;9.070;2023-01-15T13:22:20;96498.53;;;6.35;100.00
6514;BME280;3290;47.716;9.070;2023-01-15T13:27:28;96526.56;;;6.39;100.00
6514;BME280;3290;47.716;9.070;2023-01-15T13:33:28;96537.38;;;6.42;100.00
6514;BME280;3290;47.716;9.070;2023-01-15T13:36:04;96529.72;;;6.28;100.00
6514;BME280;3290;47.716;9.070;2023-01-15T13:38:38;96540.56;;;6.51;100.00
6514;BME280;3290;47.716;9.070;2023-01-15T13:41:06;96537.56;;;6.54;100.00
6514;BME280;3290;47.716;9.070;2023-01-15T13:43:42;96544.13;;;6.24;100.00
6514;BME280;3290;47.716;9.070;2023-01-15T13:46:11;96536.16;;;6.45;100.00
6514;BME280;3290;47.716;9.070;2023-01-15T13:48:45;96545.34;;;6.35;100.00
6514;BME280;3290;47.716;9.070;2023-01-15T13:51:32;96546.78;;;6.37;100.00
6514;BME280;3290;47.716;9.070;2023-01-15T13:54:03;96545.78;;;6.44;100.00
6514;BME280;3290;47.716;9.070;2023-01-15T13:56:33;96535.34;;;6.25;100.00
6514;BME280;3290;47.716;9.070;2023-01-15T13:59:04;96535.75;;;6.29;100.00
6514;BME280;3290;47.716;9.070;2023-01-15T14:06:40;96549.19;;;6.51;100.00
6514;BME280;3290;47.716;9.070;2023-01-15T14:09:31;96548.97;;;6.34;100.00
6514;BME280;3290;47.716;9.070;2023-01-15T14:15:32;96549.00;;;6.53;100.00
6514;BME280;3290;47.716;9.070;2023-01-15T14:20:49;96546.41;;;6.53;100.00
6514;BME280;3290;47.716;9.070;2023-01-15T14:23:38;96553.81;;;6.69;100.00
6514;BME280;3290;47.716;9.070;2023-01-15T14:34:35;96580.81;;;6.80;100.00
6514;BME280;3290;47.716;9.070;2023-01-15T14:37:02;96579.81;;;6.62;100.00
6514;BME280;3290;47.716;9.070;2023-01-15T14:42:16;96591.41;;;6.53;100.00
6514;BME280;3290;47.716;9.070;2023-01-15T14:45:18;96583.00;;;6.51;100.00
6514;BME280;3290;47.716;9.070;2023-01-15T14:50:37;96574.81;;;6.48;100.00
6514;BME280;3290;47.716;9.070;2023-01-15T14:55:45;96589.34;;;6.30;100.00
6514;BME280;3290;47.716;9.070;2023-01-15T15:01:16;96585.19;;;6.54;100.00
6514;BME280;3290;47.716;9.070;2023-01-15T15:06:18;96586.63;;;6.57;100.00
6514;BME280;3290;47.716;9.070;2023-01-15T15:08:45;96577.22;;;6.49;100.00
6514;BME280;3290;47.716;9.070;2023-01-15T15:11:19;96576.63;;;6.67;100.00
6514;BME280;3290;47.716;9.070;2023-01-15T15:14:05;96586.03;;;6.80;100.00
6514;BME280;3290;47.716;9.070;2023-01-15T15:16:35;96595.84;;;6.66;100.00
6514;BME280;3290;47.716;9.070;2023-01-15T15:21:53;96596.66;;;7.24;97.94
6514;BME280;3290;47.716;9.070;2023-01-15T15:24:25;96593.41;;;7.54;96.71
6514;BME280;3290;47.716;9.070;2023-01-15T15:26:51;96594.22;;;7.55;96.89
6514;BME280;3290;47.716;9.070;2023-01-15T15:29:18;96601.25;;;7.48;96.37
6514;BME280;3290;47.716;9.070;2023-01-15T15:31:45;96601.06;;;7.17;96.17
6514;BME280;3290;47.716;9.070;2023-01-15T15:34:31;96590.06;;;7.28;95.89
6514;BME280;3290;47.716;9.070;2023-01-15T15:36:59;96593.28;;;7.11;95.46
6514;BME280;3290;47.716;9.070;2023-01-15T15:48:28;96579.84;;;7.07;93.86
6514;BME280;3290;47.716;9.070;2023-01-15T15:51:35;96574.25;;;6.97;96.34